sensor_id;sensor_type;location;lat;lon;timestamp;P1;durP1;ratioP1;P2;durP2;ratioP2
29634;SDS011;16557;54.762;56.068;2023-03-05T00:01:39;15.23;;;9.13;;
29634;SDS011;16557;54.762;56.068;2023-03-05T00:04:12;12.68;;;9.15;;
29634;SDS011;16557;54.762;56.068;2023-03-05T00:06:42;12.75;;;8.90;;
29634;SDS011;16557;54.762;56.068;2023-03-05T00:09:11;12.37;;;9.38;;
29634;SDS011;16557;54.762;56.068;2023-03-05T00:11:40;12.80;;;9.45;;
29634;SDS011;16557;54.762;56.068;2023-03-05T00:14:10;11.20;;;8.43;;
29634;SDS011;16557;54.762;56.068;2023-03-05T00:16:39;16.05;;;8.63;;
29634;SDS011;16557;54.762;56.068;2023-03-05T00:19:09;13.60;;;8.98;;
29634;SDS011;16557;54.762;56.068;2023-03-05T00:21:39;14.83;;;8.38;;
29634;SDS011;16557;54.762;56.068;2023-03-05T00:24:14;14.50;;;9.05;;
29634;SDS011;16557;54.762;56.068;2023-03-05T00:26:44;10.85;;;7.72;;
29634;SDS011;16557;54.762;56.068;2023-03-05T00:29:14;12.23;;;8.43;;
29634;SDS011;16557;54.762;56.068;2023-03-05T00:31:45;10.72;;;8.00;;
29634;SDS011;16557;54.762;56.068;2023-03-05T00:34:15;12.40;;;8.73;;
29634;SDS011;16557;54.762;56.068;2023-03-05T00:36:47;11.50;;;7.75;;
29634;SDS011;16557;54.762;56.068;2023-03-05T00:39:18;14.07;;;8.73;;
29634;SDS011;16557;54.762;56.068;2023-03-05T00:41:48;11.97;;;8.20;;
29634;SDS011;16557;54.762;56.068;2023-03-05T00:44:17;11.03;;;8.05;;
29634;SDS011;16557;54.762;56.068;2023-03-05T00:46:47;11.22;;;7.78;;
29634;SDS011;16557;54.762;56.068;2023-03-05T00:49:16;9.60;;;7.35;;
29634;SDS011;16557;54.762;56.068;2023-03-05T00:51:46;11.28;;;7.90;;
29634;SDS011;16557;54.762;56.068;2023-03-05T00:54:15;8.60;;;7.00;;
29634;SDS011;16557;54.762;56.068;2023-03-05T00:56:44;9.28;;;7.75;;
29634;SDS011;16557;54.762;56.068;2023-03-05T00:59:15;10.68;;;8.23;;
29634;SDS011;16557;54.762;56.068;2023-03-05T01:01:44;10.00;;;7.58;;
29634;SDS011;16557;54.762;56.068;2023-03-05T01:04:13;10.08;;;7.33;;
29634;SDS011;16557;54.762;56.068;2023-03-05T01:06:43;11.50;;;7.72;;
29634;SDS011;16557;54.762;56.068;2023-03-05T01:09:13;10.25;;;7.05;;
29634;SDS011;16557;54.762;56.068;2023-03-05T01:11:42;10.05;;;7.22;;
29634;SDS011;16557;54.762;56.068;2023-03-05T01:14:11;10.28;;;7.05;;
29634;SDS011;16557;54.762;56.068;2023-03-05T01:16:41;10.53;;;7.17;;
29634;SDS011;16557;54.762;56.068;2023-03-05T01:19:10;9.98;;;6.92;;
29634;SDS011;16557;54.762;56.068;2023-03-05T01:21:40;8.95;;;7.22;;
29634;SDS011;16557;54.762;56.068;2023-03-05T01:24:10;8.45;;;6.35;;
29634;SDS011;16557;54.762;56.068;2023-03-05T01:26:39;10.32;;;5.95;;
29634;SDS011;16557;54.762;56.068;2023-03-05T01:29:08;10.70;;;6.85;;
29634;SDS011;16557;54.762;56.068;2023-03-05T01:31:37;9.08;;;5.30;;
29634;SDS011;16557;54.762;56.068;2023-03-05T01:34:07;7.83;;;6.08;;
29634;SDS011;16557;54.762;56.068;2023-03-05T01:36:36;7.70;;;5.95;;
29634;SDS011;16557;54.762;56.068;2023-03-05T01:39:05;7.55;;;5.53;;
29634;SDS011;16557;54.762;56.068;2023-03-05T01:41:34;8.08;;;5.40;;
29634;SDS011;16557;54.762;56.068;2023-03-05T01:44:04;5.70;;;4.55;;
29634;SDS011;16557;54.762;56.068;2023-03-05T01:46:37;7.87;;;5.85;;
29634;SDS011;16557;54.762;56.068;2023-03-05T01:54:34;7.00;;;4.70;;
29634;SDS011;16557;54.762;56.068;2023-03-05T01:57:09;7.33;;;5.22;;
29634;SDS011;16557;54.762;56.068;2023-03-05T01:59:40;7.75;;;4.33;;
29634;SDS011;16557;54.762;56.068;2023-03-05T02:02:11;7.03;;;4.45;;
29634;SDS011;16557;54.762;56.068;2023-03-05T02:04:48;6.72;;;3.98;;
29634;SDS011;16557;54.762;56.068;2023-03-05T02:07:18;4.85;;;3.62;;
29634;SDS011;16557;54.762;56.068;2023-03-05T02:09:48;6.05;;;4.28;;
29634;SDS011;16557;54.762;56.068;2023-03-05T02:12:17;5.28;;;3.87;;
29634;SDS011;16557;54.762;56.068;2023-03-05T02:14:49;4.53;;;3.47;;
29634;SDS011;16557;54.762;56.068;2023-03-05T02:17:21;4.00;;;3.40;;
29634;SDS011;16557;54.762;56.068;2023-03-05T02:19:52;3.92;;;3.12;;
29634;SDS011;16557;54.762;56.068;2023-03-05T02:22:23;5.03;;;3.25;;
29634;SDS011;16557;54.762;56.068;2023-03-05T02:24:52;5.10;;;3.42;;
29634;SDS011;16557;54.762;56.068;2023-03-05T02:27:22;6.87;;;3.45;;
29634;SDS011;16557;54.762;56.068;2023-03-05T02:29:55;5.55;;;3.20;;
29634;SDS011;16557;54.762;56.068;2023-03-05T02:32:24;5.80;;;3.50;;
29634;SDS011;16557;54.762;56.068;2023-03-05T02:34:53;6.60;;;3.30;;
29634;SDS011;16557;54.762;56.068;2023-03-05T02:37:22;4.75;;;2.83;;
29634;SDS011;16557;54.762;56.068;2023-03-05T02:39:52;5.10;;;2.77;;
29634;SDS011;16557;54.762;56.068;2023-03-05T02:42:21;3.77;;;3.05;;
29634;SDS011;16557;54.762;56.068;2023-03-05T02:44:50;4.72;;;3.00;;
29634;SDS011;16557;54.762;56.068;2023-03-05T02:47:19;4.45;;;2.90;;
29634;SDS011;16557;54.762;56.068;2023-03-05T02:49:48;4.28;;;2.95;;
29634;SDS011;16557;54.762;56.068;2023-03-05T02:52:18;7.85;;;3.40;;
29634;SDS011;16557;54.762;56.068;2023-03-05T02:54:49;4.25;;;3.08;;
29634;SDS011;16557;54.762;56.068;2023-03-05T02:57:18;5.25;;;3.15;;
29634;SDS011;16557;54.762;56.068;2023-03-05T02:59:48;7.87;;;4.78;;
29634;SDS011;16557;54.762;56.068;2023-03-05T03:02:17;5.65;;;3.70;;
29634;SDS011;16557;54.762;56.068;2023-03-05T03:04:46;3.52;;;2.90;;
29634;SDS011;16557;54.762;56.068;2023-03-05T03:07:15;3.60;;;2.80;;
29634;SDS011;16557;54.762;56.068;2023-03-05T03:09:45;3.92;;;2.98;;
29634;SDS011;16557;54.762;56.068;2023-03-05T03:12:14;4.83;;;3.37;;
29634;SDS011;16557;54.762;56.068;2023-03-05T03:14:43;4.70;;;3.33;;
29634;SDS011;16557;54.762;56.068;2023-03-05T03:17:14;6.33;;;3.30;;
29634;SDS011;16557;54.762;56.068;2023-03-05T03:19:44;5.35;;;3.55;;
29634;SDS011;16557;54.762;56.068;2023-03-05T03:22:14;5.30;;;3.10;;
29634;SDS011;16557;54.762;56.068;2023-03-05T03:24:43;5.37;;;3.20;;
29634;SDS011;16557;54.762;56.068;2023-03-05T03:27:13;4.42;;;3.30;;
29634;SDS011;16557;54.762;56.068;2023-03-05T03:29:42;6.50;;;3.80;;
29634;SDS011;16557;54.762;56.068;2023-03-05T03:32:11;20.62;;;12.95;;
29634;SDS011;16557;54.762;56.068;2023-03-05T03:34:40;3.70;;;2.90;;
29634;SDS011;16557;54.762;56.068;2023-03-05T03:37:10;5.65;;;3.77;;
29634;SDS011;16557;54.762;56.068;2023-03-05T03:39:40;4.60;;;3.10;;
29634;SDS011;16557;54.762;56.068;2023-03-05T03:42:09;5.50;;;3.90;;
29634;SDS011;16557;54.762;56.068;2023-03-05T03:44:38;5.78;;;3.83;;
29634;SDS011;16557;54.762;56.068;2023-03-05T03:47:07;5.37;;;4.28;;
29634;SDS011;16557;54.762;56.068;2023-03-05T03:49:36;5.15;;;3.72;;
29634;SDS011;16557;54.762;56.068;2023-03-05T03:52:06;5.47;;;3.58;;
29634;SDS011;16557;54.762;56.068;2023-03-05T03:54:35;5.55;;;3.80;;
29634;SDS011;16557;54.762;56.068;2023-03-05T03:57:05;7.03;;;3.90;;
29634;SDS011;16557;54.762;56.068;2023-03-05T03:59:34;6.22;;;4.42;;
29634;SDS011;16557;54.762;56.068;2023-03-05T04:02:05;5.80;;;3.75;;
29634;SDS011;16557;54.762;56.068;2023-03-05T04:04:34;5.67;;;3.52;;
29634;SDS011;16557;54.762;56.068;2023-03-05T04:07:04;5.00;;;3.60;;
29634;SDS011;16557;54.762;56.068;2023-03-05T04:09:33;6.20;;;3.83;;
29634;SDS011;16557;54.762;56.068;2023-03-05T04:12:02;4.90;;;3.67;;
29634;SDS011;16557;54.762;56.068;2023-03-05T04:14:31;6.08;;;3.83;;
29634;SDS011;16557;54.762;56.068;2023-03-05T04:17:00;5.72;;;4.25;;
29634;SDS011;16557;54.762;56.068;2023-03-05T04:19:34;4.75;;;3.98;;
29634;SDS011;16557;54.762;56.068;2023-03-05T04:22:03;5.55;;;4.03;;
29634;SDS011;16557;54.762;56.068;2023-03-05T04:24:33;19.23;;;11.80;;
29634;SDS011;16557;54.762;56.068;2023-03-05T04:27:03;5.47;;;4.45;;
29634;SDS011;16557;54.762;56.068;2023-03-05T04:29:33;6.30;;;4.95;;
29634;SDS011;16557;54.762;56.068;2023-03-05T04:32:02;6.53;;;4.45;;
29634;SDS011;16557;54.762;56.068;2023-03-05T04:34:31;5.33;;;3.90;;
29634;SDS011;16557;54.762;56.068;2023-03-05T04:37:01;6.20;;;4.25;;
29634;SDS011;16557;54.762;56.068;2023-03-05T04:39:30;5.60;;;4.00;;
29634;SDS011;16557;54.762;56.068;2023-03-05T04:42:00;8.88;;;5.55;;
29634;SDS011;16557;54.762;56.068;2023-03-05T04:44:30;5.85;;;4.58;;
29634;SDS011;16557;54.762;56.068;2023-03-05T04:46:59;5.58;;;4.22;;
29634;SDS011;16557;54.762;56.068;2023-03-05T04:49:28;6.12;;;4.28;;
29634;SDS011;16557;54.762;56.068;2023-03-05T04:51:57;5.37;;;4.12;;
29634;SDS011;16557;54.762;56.068;2023-03-05T04:54:26;7.97;;;5.33;;
29634;SDS011;16557;54.762;56.068;2023-03-05T04:56:56;6.87;;;4.83;;
29634;SDS011;16557;54.762;56.068;2023-03-05T04:59:25;6.58;;;4.85;;
29634;SDS011;16557;54.762;56.068;2023-03-05T05:01:54;5.08;;;4.17;;
29634;SDS011;16557;54.762;56.068;2023-03-05T05:04:23;5.90;;;4.55;;
29634;SDS011;16557;54.762;56.068;2023-03-05T05:06:56;6.75;;;4.90;;
29634;SDS011;16557;54.762;56.068;2023-03-05T05:09:25;8.48;;;4.65;;
29634;SDS011;16557;54.762;56.068;2023-03-05T05:11:54;8.68;;;5.28;;
29634;SDS011;16557;54.762;56.068;2023-03-05T05:14:24;21.12;;;13.95;;
29634;SDS011;16557;54.762;56.068;2023-03-05T05:16:53;18.70;;;13.65;;
29634;SDS011;16557;54.762;56.068;2023-03-05T05:19:22;32.30;;;19.77;;
29634;SDS011;16557;54.762;56.068;2023-03-05T05:21:51;9.90;;;6.42;;
29634;SDS011;16557;54.762;56.068;2023-03-05T05:24:20;6.12;;;4.40;;
29634;SDS011;16557;54.762;56.068;2023-03-05T05:26:50;7.67;;;5.03;;
29634;SDS011;16557;54.762;56.068;2023-03-05T05:29:21;5.42;;;4.65;;
29634;SDS011;16557;54.762;56.068;2023-03-05T05:31:50;6.10;;;4.83;;
29634;SDS011;16557;54.762;56.068;2023-03-05T05:34:20;7.12;;;5.20;;
29634;SDS011;16557;54.762;56.068;2023-03-05T05:36:54;7.33;;;5.47;;
29634;SDS011;16557;54.762;56.068;2023-03-05T05:39:23;7.10;;;5.65;;
29634;SDS011;16557;54.762;56.068;2023-03-05T05:41:52;6.90;;;5.28;;
29634;SDS011;16557;54.762;56.068;2023-03-05T05:44:21;10.55;;;7.65;;
29634;SDS011;16557;54.762;56.068;2023-03-05T05:46:51;8.80;;;5.55;;
29634;SDS011;16557;54.762;56.068;2023-03-05T05:49:20;9.05;;;5.72;;
29634;SDS011;16557;54.762;56.068;2023-03-05T05:51:49;9.43;;;5.92;;
29634;SDS011;16557;54.762;56.068;2023-03-05T05:54:18;8.20;;;5.87;;
29634;SDS011;16557;54.762;56.068;2023-03-05T05:56:47;8.00;;;6.00;;
29634;SDS011;16557;54.762;56.068;2023-03-05T05:59:17;8.08;;;5.90;;
29634;SDS011;16557;54.762;56.068;2023-03-05T06:01:46;7.03;;;5.85;;
29634;SDS011;16557;54.762;56.068;2023-03-05T06:04:15;7.10;;;5.72;;
29634;SDS011;16557;54.762;56.068;2023-03-05T06:06:45;8.73;;;6.20;;
29634;SDS011;16557;54.762;56.068;2023-03-05T06:09:14;11.55;;;7.35;;
29634;SDS011;16557;54.762;56.068;2023-03-05T06:11:43;9.93;;;7.42;;
29634;SDS011;16557;54.762;56.068;2023-03-05T06:14:14;9.13;;;7.03;;
29634;SDS011;16557;54.762;56.068;2023-03-05T06:16:43;8.33;;;6.37;;
29634;SDS011;16557;54.762;56.068;2023-03-05T06:19:13;8.58;;;6.72;;
29634;SDS011;16557;54.762;56.068;2023-03-05T06:21:42;9.30;;;6.08;;
29634;SDS011;16557;54.762;56.068;2023-03-05T06:24:12;7.53;;;6.10;;
29634;SDS011;16557;54.762;56.068;2023-03-05T06:26:41;44.83;;;31.30;;
29634;SDS011;16557;54.762;56.068;2023-03-05T06:29:10;37.15;;;26.30;;
29634;SDS011;16557;54.762;56.068;2023-03-05T06:31:39;9.15;;;7.50;;
29634;SDS011;16557;54.762;56.068;2023-03-05T06:34:09;9.08;;;6.60;;
29634;SDS011;16557;54.762;56.068;2023-03-05T06:36:38;10.43;;;6.90;;
29634;SDS011;16557;54.762;56.068;2023-03-05T06:39:07;7.42;;;6.15;;
29634;SDS011;16557;54.762;56.068;2023-03-05T06:41:36;9.55;;;6.95;;
29634;SDS011;16557;54.762;56.068;2023-03-05T06:44:05;9.05;;;6.60;;
29634;SDS011;16557;54.762;56.068;2023-03-05T06:46:35;7.50;;;6.45;;
29634;SDS011;16557;54.762;56.068;2023-03-05T06:49:06;8.45;;;6.55;;
29634;SDS011;16557;54.762;56.068;2023-03-05T06:51:36;9.08;;;7.00;;
29634;SDS011;16557;54.762;56.068;2023-03-05T06:54:08;15.10;;;10.25;;
29634;SDS011;16557;54.762;56.068;2023-03-05T06:56:39;8.45;;;6.60;;
29634;SDS011;16557;54.762;56.068;2023-03-05T06:59:10;8.65;;;6.62;;
29634;SDS011;16557;54.762;56.068;2023-03-05T07:01:40;8.68;;;6.65;;
29634;SDS011;16557;54.762;56.068;2023-03-05T07:04:11;11.05;;;7.92;;
29634;SDS011;16557;54.762;56.068;2023-03-05T07:06:40;9.10;;;6.60;;
29634;SDS011;16557;54.762;56.068;2023-03-05T07:09:11;8.43;;;6.78;;
29634;SDS011;16557;54.762;56.068;2023-03-05T07:11:42;8.38;;;6.55;;
29634;SDS011;16557;54.762;56.068;2023-03-05T07:14:11;10.08;;;7.25;;
29634;SDS011;16557;54.762;56.068;2023-03-05T07:16:40;8.23;;;6.40;;
29634;SDS011;16557;54.762;56.068;2023-03-05T07:19:09;10.23;;;7.37;;
29634;SDS011;16557;54.762;56.068;2023-03-05T07:21:39;9.95;;;7.35;;
29634;SDS011;16557;54.762;56.068;2023-03-05T07:24:08;12.68;;;7.58;;
29634;SDS011;16557;54.762;56.068;2023-03-05T07:26:38;9.48;;;7.53;;
29634;SDS011;16557;54.762;56.068;2023-03-05T07:29:07;10.32;;;7.35;;
29634;SDS011;16557;54.762;56.068;2023-03-05T07:31:37;11.55;;;8.38;;
29634;SDS011;16557;54.762;56.068;2023-03-05T07:34:06;9.93;;;7.45;;
29634;SDS011;16557;54.762;56.068;2023-03-05T07:36:36;10.95;;;8.80;;
29634;SDS011;16557;54.762;56.068;2023-03-05T07:39:06;11.45;;;8.40;;
29634;SDS011;16557;54.762;56.068;2023-03-05T07:41:37;9.70;;;7.78;;
29634;SDS011;16557;54.762;56.068;2023-03-05T07:44:06;12.60;;;9.25;;
29634;SDS011;16557;54.762;56.068;2023-03-05T07:46:36;12.60;;;8.45;;
29634;SDS011;16557;54.762;56.068;2023-03-05T07:49:05;11.08;;;8.30;;
29634;SDS011;16557;54.762;56.068;2023-03-05T07:51:35;10.55;;;8.13;;
29634;SDS011;16557;54.762;56.068;2023-03-05T07:54:04;12.00;;;9.15;;
29634;SDS011;16557;54.762;56.068;2023-03-05T07:56:34;18.75;;;11.60;;
29634;SDS011;16557;54.762;56.068;2023-03-05T07:59:04;11.90;;;8.88;;
29634;SDS011;16557;54.762;56.068;2023-03-05T08:01:35;13.13;;;9.23;;
29634;SDS011;16557;54.762;56.068;2023-03-05T08:04:07;12.80;;;9.00;;
29634;SDS011;16557;54.762;56.068;2023-03-05T08:06:39;12.15;;;9.38;;
29634;SDS011;16557;54.762;56.068;2023-03-05T08:09:08;22.62;;;14.25;;
29634;SDS011;16557;54.762;56.068;2023-03-05T08:11:38;16.42;;;11.78;;
29634;SDS011;16557;54.762;56.068;2023-03-05T08:14:07;13.98;;;9.63;;
29634;SDS011;16557;54.762;56.068;2023-03-05T08:16:38;14.45;;;10.15;;
29634;SDS011;16557;54.762;56.068;2023-03-05T08:19:08;15.53;;;9.98;;
29634;SDS011;16557;54.762;56.068;2023-03-05T08:21:38;14.75;;;10.28;;
29634;SDS011;16557;54.762;56.068;2023-03-05T08:24:07;15.25;;;10.78;;
29634;SDS011;16557;54.762;56.068;2023-03-05T08:26:38;15.95;;;11.50;;
29634;SDS011;16557;54.762;56.068;2023-03-05T08:29:08;14.20;;;10.53;;
29634;SDS011;16557;54.762;56.068;2023-03-05T08:31:37;15.83;;;11.33;;
29634;SDS011;16557;54.762;56.068;2023-03-05T08:34:07;18.15;;;11.85;;
29634;SDS011;16557;54.762;56.068;2023-03-05T08:36:38;20.12;;;13.53;;
29634;SDS011;16557;54.762;56.068;2023-03-05T08:39:07;35.55;;;21.12;;
29634;SDS011;16557;54.762;56.068;2023-03-05T08:41:36;19.85;;;14.20;;
29634;SDS011;16557;54.762;56.068;2023-03-05T08:44:05;19.25;;;12.82;;
29634;SDS011;16557;54.762;56.068;2023-03-05T08:46:35;15.25;;;11.22;;
29634;SDS011;16557;54.762;56.068;2023-03-05T08:49:06;16.93;;;11.73;;
29634;SDS011;16557;54.762;56.068;2023-03-05T08:51:35;15.78;;;11.05;;
29634;SDS011;16557;54.762;56.068;2023-03-05T08:54:05;15.15;;;10.88;;
29634;SDS011;16557;54.762;56.068;2023-03-05T08:56:34;18.40;;;11.22;;
29634;SDS011;16557;54.762;56.068;2023-03-05T08:59:04;18.55;;;11.90;;
29634;SDS011;16557;54.762;56.068;2023-03-05T09:01:34;18.77;;;12.23;;
29634;SDS011;16557;54.762;56.068;2023-03-05T09:04:03;16.27;;;11.50;;
29634;SDS011;16557;54.762;56.068;2023-03-05T09:06:33;16.30;;;11.60;;
29634;SDS011;16557;54.762;56.068;2023-03-05T09:09:04;16.32;;;11.10;;
29634;SDS011;16557;54.762;56.068;2023-03-05T09:11:35;17.77;;;12.78;;
29634;SDS011;16557;54.762;56.068;2023-03-05T09:14:05;16.67;;;11.68;;
29634;SDS011;16557;54.762;56.068;2023-03-05T09:16:35;17.85;;;12.47;;
29634;SDS011;16557;54.762;56.068;2023-03-05T09:19:06;19.27;;;12.50;;
29634;SDS011;16557;54.762;56.068;2023-03-05T09:21:37;18.17;;;12.43;;
29634;SDS011;16557;54.762;56.068;2023-03-05T09:24:06;22.13;;;12.95;;
29634;SDS011;16557;54.762;56.068;2023-03-05T09:26:36;17.70;;;12.47;;
29634;SDS011;16557;54.762;56.068;2023-03-05T09:29:07;18.75;;;12.00;;
29634;SDS011;16557;54.762;56.068;2023-03-05T09:31:38;19.25;;;11.78;;
29634;SDS011;16557;54.762;56.068;2023-03-05T09:34:07;24.07;;;15.53;;
29634;SDS011;16557;54.762;56.068;2023-03-05T09:36:37;18.92;;;13.22;;
29634;SDS011;16557;54.762;56.068;2023-03-05T09:39:06;18.20;;;12.43;;
29634;SDS011;16557;54.762;56.068;2023-03-05T09:44:34;18.02;;;12.93;;
29634;SDS011;16557;54.762;56.068;2023-03-05T09:50:07;24.90;;;17.45;;
29634;SDS011;16557;54.762;56.068;2023-03-05T09:52:42;19.05;;;13.25;;
29634;SDS011;16557;54.762;56.068;2023-03-05T09:57:53;22.00;;;14.53;;
29634;SDS011;16557;54.762;56.068;2023-03-05T10:03:21;17.73;;;12.23;;
29634;SDS011;16557;54.762;56.068;2023-03-05T10:05:57;15.85;;;11.45;;
29634;SDS011;16557;54.762;56.068;2023-03-05T10:08:32;15.08;;;10.72;;
29634;SDS011;16557;54.762;56.068;2023-03-05T10:11:17;15.10;;;10.50;;
29634;SDS011;16557;54.762;56.068;2023-03-05T10:13:43;15.40;;;11.17;;
29634;SDS011;16557;54.762;56.068;2023-03-05T10:16:26;19.73;;;13.05;;
29634;SDS011;16557;54.762;56.068;2023-03-05T10:26:56;16.27;;;11.33;;
29634;SDS011;16557;54.762;56.068;2023-03-05T10:35:39;16.73;;;10.63;;
29634;SDS011;16557;54.762;56.068;2023-03-05T10:40:59;24.37;;;16.57;;
29634;SDS011;16557;54.762;56.068;2023-03-05T10:46:30;28.80;;;19.85;;
29634;SDS011;16557;54.762;56.068;2023-03-05T10:49:04;15.55;;;10.70;;
29634;SDS011;16557;54.762;56.068;2023-03-05T10:51:50;22.30;;;10.78;;
29634;SDS011;16557;54.762;56.068;2023-03-05T10:54:23;16.00;;;10.55;;
29634;SDS011;16557;54.762;56.068;2023-03-05T10:59:47;16.02;;;10.78;;
29634;SDS011;16557;54.762;56.068;2023-03-05T11:02:18;16.75;;;11.43;;
29634;SDS011;16557;54.762;56.068;2023-03-05T11:04:49;16.65;;;11.65;;
29634;SDS011;16557;54.762;56.068;2023-03-05T11:10:00;18.55;;;12.90;;
29634;SDS011;16557;54.762;56.068;2023-03-05T11:12:33;19.57;;;12.53;;
29634;SDS011;16557;54.762;56.068;2023-03-05T11:15:05;17.57;;;11.63;;
29634;SDS011;16557;54.762;56.068;2023-03-05T11:17:41;20.32;;;13.68;;
29634;SDS011;16557;54.762;56.068;2023-03-05T11:28:31;21.17;;;12.78;;
29634;SDS011;16557;54.762;56.068;2023-03-05T11:31:06;18.60;;;12.70;;
29634;SDS011;16557;54.762;56.068;2023-03-05T11:33:37;17.65;;;12.28;;
29634;SDS011;16557;54.762;56.068;2023-03-05T11:36:22;17.65;;;13.18;;
29634;SDS011;16557;54.762;56.068;2023-03-05T11:38:54;18.40;;;13.85;;
29634;SDS011;16557;54.762;56.068;2023-03-05T11:41:30;24.65;;;16.45;;
29634;SDS011;16557;54.762;56.068;2023-03-05T11:44:11;17.62;;;12.60;;
29634;SDS011;16557;54.762;56.068;2023-03-05T11:46:46;17.92;;;11.33;;
29634;SDS011;16557;54.762;56.068;2023-03-05T11:49:18;17.12;;;11.57;;
29634;SDS011;16557;54.762;56.068;2023-03-05T11:57:39;18.07;;;12.68;;
29634;SDS011;16557;54.762;56.068;2023-03-05T12:00:12;21.07;;;12.40;;
29634;SDS011;16557;54.762;56.068;2023-03-05T12:02:41;20.37;;;13.90;;
29634;SDS011;16557;54.762;56.068;2023-03-05T12:05:13;18.25;;;12.98;;
29634;SDS011;16557;54.762;56.068;2023-03-05T12:07:45;19.92;;;13.72;;
29634;SDS011;16557;54.762;56.068;2023-03-05T12:10:17;21.33;;;13.10;;
29634;SDS011;16557;54.762;56.068;2023-03-05T12:12:50;18.98;;;13.40;;
29634;SDS011;16557;54.762;56.068;2023-03-05T12:29:42;19.92;;;14.35;;
29634;SDS011;16557;54.762;56.068;2023-03-05T12:35:01;19.80;;;14.28;;
29634;SDS011;16557;54.762;56.068;2023-03-05T12:40:28;19.55;;;14.35;;
29634;SDS011;16557;54.762;56.068;2023-03-05T12:45:39;24.30;;;14.63;;
29634;SDS011;16557;54.762;56.068;2023-03-05T12:53:17;21.12;;;13.93;;
29634;SDS011;16557;54.762;56.068;2023-03-05T13:04:05;22.90;;;15.45;;
29634;SDS011;16557;54.762;56.068;2023-03-05T13:06:37;20.97;;;14.63;;
29634;SDS011;16557;54.762;56.068;2023-03-05T13:11:46;23.10;;;15.88;;
29634;SDS011;16557;54.762;56.068;2023-03-05T13:25:37;21.25;;;14.68;;
29634;SDS011;16557;54.762;56.068;2023-03-05T13:28:16;21.85;;;15.20;;
29634;SDS011;16557;54.762;56.068;2023-03-05T13:30:51;20.55;;;14.98;;
29634;SDS011;16557;54.762;56.068;2023-03-05T13:33:31;26.75;;;15.58;;
29634;SDS011;16557;54.762;56.068;2023-03-05T13:35:57;25.37;;;16.12;;
29634;SDS011;16557;54.762;56.068;2023-03-05T13:38:28;29.90;;;20.62;;
29634;SDS011;16557;54.762;56.068;2023-03-05T13:43:53;25.65;;;17.27;;
29634;SDS011;16557;54.762;56.068;2023-03-05T13:46:23;29.40;;;18.90;;
29634;SDS011;16557;54.762;56.068;2023-03-05T13:48:55;26.05;;;18.05;;
29634;SDS011;16557;54.762;56.068;2023-03-05T13:51:39;25.40;;;17.60;;
29634;SDS011;16557;54.762;56.068;2023-03-05T13:53:57;25.90;;;17.65;;
29634;SDS011;16557;54.762;56.068;2023-03-05T13:56:26;23.98;;;17.48;;
29634;SDS011;16557;54.762;56.068;2023-03-05T13:58:55;21.30;;;15.80;;
29634;SDS011;16557;54.762;56.068;2023-03-05T14:01:29;25.20;;;17.55;;
29634;SDS011;16557;54.762;56.068;2023-03-05T14:04:05;24.27;;;17.37;;
29634;SDS011;16557;54.762;56.068;2023-03-05T14:09:27;21.55;;;16.00;;
29634;SDS011;16557;54.762;56.068;2023-03-05T14:12:19;30.57;;;20.08;;
29634;SDS011;16557;54.762;56.068;2023-03-05T14:14:54;26.47;;;17.53;;
29634;SDS011;16557;54.762;56.068;2023-03-05T14:22:43;22.42;;;15.98;;
29634;SDS011;16557;54.762;56.068;2023-03-05T14:25:33;24.10;;;16.82;;
29634;SDS011;16557;54.762;56.068;2023-03-05T14:28:06;26.42;;;17.85;;
29634;SDS011;16557;54.762;56.068;2023-03-05T14:30:43;21.68;;;17.02;;
29634;SDS011;16557;54.762;56.068;2023-03-05T14:33:09;23.60;;;16.85;;
29634;SDS011;16557;54.762;56.068;2023-03-05T14:35:38;24.70;;;16.23;;
29634;SDS011;16557;54.762;56.068;2023-03-05T14:38:14;21.60;;;16.80;;
29634;SDS011;16557;54.762;56.068;2023-03-05T14:40:42;21.93;;;16.52;;
29634;SDS011;16557;54.762;56.068;2023-03-05T14:43:12;23.18;;;15.88;;
29634;SDS011;16557;54.762;56.068;2023-03-05T14:45:41;20.27;;;14.55;;
29634;SDS011;16557;54.762;56.068;2023-03-05T14:48:15;19.98;;;14.95;;
29634;SDS011;16557;54.762;56.068;2023-03-05T14:50:48;19.12;;;14.60;;
29634;SDS011;16557;54.762;56.068;2023-03-05T14:53:21;17.62;;;13.32;;
29634;SDS011;16557;54.762;56.068;2023-03-05T14:55:56;20.90;;;14.90;;
29634;SDS011;16557;54.762;56.068;2023-03-05T14:58:29;18.92;;;13.00;;
29634;SDS011;16557;54.762;56.068;2023-03-05T15:01:01;20.95;;;13.53;;
29634;SDS011;16557;54.762;56.068;2023-03-05T15:03:30;17.62;;;13.43;;
29634;SDS011;16557;54.762;56.068;2023-03-05T15:05:59;16.62;;;13.43;;
29634;SDS011;16557;54.762;56.068;2023-03-05T15:08:30;19.15;;;14.40;;
29634;SDS011;16557;54.762;56.068;2023-03-05T15:11:01;17.77;;;13.70;;
29634;SDS011;16557;54.762;56.068;2023-03-05T15:13:32;18.48;;;13.80;;
29634;SDS011;16557;54.762;56.068;2023-03-05T15:16:04;20.10;;;14.58;;
29634;SDS011;16557;54.762;56.068;2023-03-05T15:18:34;17.95;;;13.62;;
29634;SDS011;16557;54.762;56.068;2023-03-05T15:21:03;17.65;;;12.80;;
29634;SDS011;16557;54.762;56.068;2023-03-05T15:23:33;20.60;;;14.70;;
29634;SDS011;16557;54.762;56.068;2023-03-05T15:26:04;18.70;;;14.63;;
29634;SDS011;16557;54.762;56.068;2023-03-05T15:28:36;21.17;;;15.25;;
29634;SDS011;16557;54.762;56.068;2023-03-05T15:31:05;19.05;;;14.25;;
29634;SDS011;16557;54.762;56.068;2023-03-05T15:33:35;18.95;;;14.43;;
29634;SDS011;16557;54.762;56.068;2023-03-05T15:36:04;22.42;;;14.43;;
29634;SDS011;16557;54.762;56.068;2023-03-05T15:38:35;19.80;;;13.35;;
29634;SDS011;16557;54.762;56.068;2023-03-05T15:41:05;20.82;;;15.18;;
29634;SDS011;16557;54.762;56.068;2023-03-05T15:43:35;23.25;;;15.93;;
29634;SDS011;16557;54.762;56.068;2023-03-05T15:46:05;20.10;;;15.72;;
29634;SDS011;16557;54.762;56.068;2023-03-05T15:48:34;21.48;;;15.20;;
29634;SDS011;16557;54.762;56.068;2023-03-05T15:51:06;21.15;;;14.58;;
29634;SDS011;16557;54.762;56.068;2023-03-05T15:53:36;24.90;;;15.50;;
29634;SDS011;16557;54.762;56.068;2023-03-05T15:56:05;25.10;;;16.37;;
29634;SDS011;16557;54.762;56.068;2023-03-05T15:58:34;22.87;;;15.60;;
29634;SDS011;16557;54.762;56.068;2023-03-05T16:01:04;20.40;;;15.05;;
29634;SDS011;16557;54.762;56.068;2023-03-05T16:03:34;18.55;;;14.75;;
29634;SDS011;16557;54.762;56.068;2023-03-05T16:06:03;20.90;;;14.85;;
29634;SDS011;16557;54.762;56.068;2023-03-05T16:08:34;20.75;;;14.55;;
29634;SDS011;16557;54.762;56.068;2023-03-05T16:11:04;21.60;;;15.50;;
29634;SDS011;16557;54.762;56.068;2023-03-05T16:13:34;24.82;;;15.68;;
29634;SDS011;16557;54.762;56.068;2023-03-05T16:16:04;23.05;;;15.13;;
29634;SDS011;16557;54.762;56.068;2023-03-05T16:18:38;20.27;;;14.55;;
29634;SDS011;16557;54.762;56.068;2023-03-05T16:21:11;30.10;;;19.75;;
29634;SDS011;16557;54.762;56.068;2023-03-05T16:23:41;22.17;;;14.60;;
29634;SDS011;16557;54.762;56.068;2023-03-05T16:26:10;20.12;;;14.03;;
29634;SDS011;16557;54.762;56.068;2023-03-05T16:28:39;20.70;;;14.05;;
29634;SDS011;16557;54.762;56.068;2023-03-05T16:31:08;21.37;;;15.63;;
29634;SDS011;16557;54.762;56.068;2023-03-05T16:33:37;20.25;;;13.83;;
29634;SDS011;16557;54.762;56.068;2023-03-05T16:38:51;22.45;;;15.03;;
29634;SDS011;16557;54.762;56.068;2023-03-05T16:41:22;19.77;;;13.88;;